createdAt,value
2023-03-29T00:49:20.555Z,77.62
2023-03-29T17:50:15.765Z,60.84
2023-03-29T17:52:47.225Z,61.30
2023-03-29T17:55:18.559Z,61.82
2023-03-29T17:57:51.073Z,61.36
2023-03-29T18:00:24.554Z,62.14
2023-03-29T18:02:56.102Z,61.82
2023-03-29T18:05:27.161Z,61.76
2023-03-29T18:07:58.341Z,60.72
2023-03-29T18:10:29.947Z,60.65
2023-03-29T18:13:02.048Z,60.65
2023-03-29T18:15:32.402Z,60.41
2023-03-29T18:18:06.562Z,60.51
2023-03-29T18:20:37.208Z,60.45
2023-03-29T18:23:07.546Z,59.92
2023-03-29T18:25:37.851Z,60.51
2023-03-29T18:28:10.403Z,61.27
2023-03-29T18:30:47.253Z,61.01
2023-03-29T18:33:27.666Z,61.49
2023-03-29T18:36:01.945Z,61.18
2023-03-29T18:38:37.406Z,61.74
2023-03-29T18:41:09.918Z,62.53
2023-03-29T18:43:44.430Z,63.21
2023-03-29T18:46:17.265Z,62.92
2023-03-29T18:48:48.477Z,64.08
2023-03-29T18:51:19.347Z,64.52
2023-03-29T18:53:49.832Z,65.13
2023-03-29T18:56:20.901Z,65.65
2023-03-29T18:58:52.056Z,65.92
2023-03-29T19:01:24.044Z,66.76
2023-03-29T19:03:55.600Z,65.58
2023-03-29T19:06:27.805Z,65.20
2023-03-29T19:09:04.138Z,64.93
2023-03-29T19:11:36.258Z,65.60
2023-03-29T19:14:10.476Z,66.10
2023-03-29T19:16:45.058Z,66.72
2023-03-29T19:19:30.056Z,65.89
2023-03-29T19:22:00.969Z,66.77
2023-03-29T19:24:32.694Z,67.32
2023-03-29T19:27:03.344Z,67.64
2023-03-29T19:29:33.881Z,68.15
2023-03-29T19:32:05.465Z,68.53
2023-03-29T19:34:37.632Z,69.38
2023-03-29T19:37:08.880Z,69.75
2023-03-29T19:39:38.925Z,70.05
2023-03-29T19:42:16.493Z,70.27
2023-03-29T19:44:47.485Z,69.18
2023-03-29T19:47:19.390Z,66.68
2023-03-29T19:49:49.631Z,63.12
2023-03-29T19:52:23.123Z,61.53
2023-03-29T19:54:56.617Z,60.80
2023-03-29T19:57:27.210Z,60.65
2023-03-29T19:59:58.136Z,59.51
2023-03-29T20:02:28.843Z,60.62
2023-03-29T20:05:00.887Z,61.35
2023-03-29T20:07:31.213Z,61.67
2023-03-29T20:10:01.964Z,61.27
2023-03-29T20:12:33.681Z,60.36
2023-03-29T20:15:04.544Z,59.89
2023-03-29T20:17:37.435Z,59.50
2023-03-29T20:20:11.253Z,59.10
2023-03-29T20:22:43.582Z,58.66
2023-03-29T20:25:15.412Z,59.19
2023-03-29T20:27:46.114Z,59.46
2023-03-29T20:30:18.803Z,59.08
2023-03-29T20:32:50.722Z,58.69
2023-03-29T20:35:21.573Z,58.04
2023-03-29T20:37:52.382Z,57.46
2023-03-29T20:40:23.380Z,58.61
2023-03-29T20:42:58.279Z,58.82
2023-03-29T20:45:37.207Z,59.55
2023-03-29T20:48:15.604Z,59.32
2023-03-29T20:50:51.439Z,58.62
2023-03-29T20:53:21.975Z,58.32
2023-03-29T20:55:55.127Z,57.41
2023-03-29T20:58:29.598Z,56.56
2023-03-29T21:01:00.266Z,56.25
2023-03-29T21:03:31.943Z,55.69
2023-03-29T21:06:04.828Z,56.97
2023-03-29T21:08:36.117Z,56.97
2023-03-29T21:11:11.040Z,55.11
2023-03-29T21:13:46.604Z,56.05
2023-03-29T21:16:17.072Z,56.30
2023-03-29T21:18:49.119Z,58.06
2023-03-29T21:21:20.818Z,59.34
2023-03-29T21:23:52.217Z,60.79
2023-03-29T21:26:25.022Z,61.49
2023-03-29T21:28:56.990Z,61.06
2023-03-29T21:31:28.553Z,57.38
2023-03-29T21:34:01.744Z,55.61
2023-03-29T21:36:35.365Z,54.12
2023-03-29T21:39:06.718Z,53.88
2023-03-29T21:41:36.913Z,52.94
2023-03-29T21:44:07.975Z,53.45
2023-03-29T21:46:38.462Z,56.95
2023-03-29T21:49:08.599Z,62.95
2023-03-29T21:51:39.894Z,64.69
2023-03-29T21:54:15.876Z,67.97
2023-03-29T21:56:47.265Z,69.39
2023-03-29T21:59:19.082Z,70.48
2023-03-29T22:01:50.144Z,71.11
2023-03-29T22:04:33.008Z,71.43
2023-03-29T22:07:09.492Z,71.70
2023-03-29T22:09:43.611Z,71.70
2023-03-29T22:12:13.822Z,71.93
2023-03-29T22:14:44.742Z,71.48
2023-03-29T22:17:17.316Z,70.28
2023-03-29T22:19:49.536Z,69.54
2023-03-29T22:22:21.011Z,69.26
2023-03-29T22:24:53.131Z,70.32
2023-03-29T22:27:24.520Z,71.02
2023-03-29T22:29:55.555Z,71.87
2023-03-29T22:32:26.319Z,72.35
2023-03-29T22:34:58.115Z,72.33
2023-03-29T22:37:31.816Z,72.27
2023-03-29T22:40:02.905Z,72.87
2023-03-29T22:42:34.266Z,73.34
2023-03-29T22:45:05.351Z,73.26
2023-03-29T22:47:37.859Z,72.75
2023-03-29T22:50:09.606Z,73.42
2023-03-29T22:52:40.732Z,73.98
2023-03-29T22:55:12.348Z,74.66
2023-03-29T22:57:46.013Z,74.46
2023-03-29T23:00:17.215Z,75.14
2023-03-29T23:02:49.032Z,75.46
2023-03-29T23:05:20.164Z,74.96
